Time;durP1;ratioP1;P1;durP2;ratioP2;P2;SDS_P1;SDS_P2;PMS_P1;PMS_P2;Temp;Humidity;BMP_temperature;BMP_pressure;BME280_temperature;BME280_humidity;BME280_pressure;Samples;Min_cycle;Max_cycle;Signal;HPM_P1;HPM_P2
2023/07/17 00:00:58;;;;;;;7.50;6.80;;;;;;;18.89;100.00;97483.54;110173;1241;71309;-65
2023/07/17 00:03:41;;;;;;;7.90;7.10;;;;;;;18.82;100.00;97487.23;110176;1242;69831;-66
2023/07/17 00:06:13;;;;;;;9.30;7.10;;;;;;;18.76;100.00;97486.52;110194;1241;69392;-64
2023/07/17 00:08:44;;;;;;;7.90;7.10;;;;;;;18.71;100.00;97484.19;110194;1242;59675;-64
2023/07/17 00:11:16;;;;;;;7.70;6.90;;;;;;;18.68;100.00;97493.69;110180;1241;59795;-65
2023/07/17 00:13:47;;;;;;;8.50;6.80;;;;;;;18.65;100.00;97495.45;110227;1242;71412;-63
2023/07/17 00:16:19;;;;;;;8.30;7.50;;;;;;;18.62;100.00;97494.82;110157;1241;69235;-64
2023/07/17 00:18:52;;;;;;;8.90;6.90;;;;;;;18.60;100.00;97500.33;110194;1244;69142;-64
2023/07/17 00:21:23;;;;;;;8.50;7.00;;;;;;;18.59;100.00;97503.78;110200;1242;59763;-64
2023/07/17 00:23:53;;;;;;;7.60;6.40;;;;;;;18.58;100.00;97501.09;110264;1243;59681;-63
2023/07/17 00:26:24;;;;;;;8.20;6.40;;;;;;;18.57;100.00;97500.11;110189;1241;70984;-63
2023/07/17 00:29:24;;;;;;;6.80;6.10;;;;;;;18.56;100.00;97493.33;110146;1241;69175;-66
2023/07/17 00:32:00;;;;;;;9.10;7.80;;;;;;;18.53;100.00;97493.45;110252;1241;69193;-64
2023/07/17 00:34:32;;;;;;;9.10;7.70;;;;;;;18.47;100.00;97490.73;110203;1242;59712;-64
2023/07/17 00:37:04;;;;;;;8.50;7.60;;;;;;;18.42;100.00;97492.55;110240;1241;59742;-66
2023/07/17 00:39:37;;;;;;;8.80;7.50;;;;;;;18.37;100.00;97492.50;110259;1242;70647;-65
2023/07/17 00:42:14;;;;;;;9.40;7.90;;;;;;;18.34;100.00;97495.42;110121;1245;69244;-66
2023/07/17 00:44:47;;;;;;;8.30;7.50;;;;;;;18.31;100.00;97495.18;110253;1242;69682;-64
2023/07/17 00:47:18;;;;;;;8.10;7.30;;;;;;;18.28;100.00;97488.81;110120;1244;60201;-64
2023/07/17 00:49:49;;;;;;;9.80;7.80;;;;;;;18.27;100.00;97484.02;110175;1244;59743;-65
2023/07/17 00:52:20;;;;;;;8.70;7.80;;;;;;;18.26;100.00;97484.27;110295;1242;71422;-64
2023/07/17 00:54:54;;;;;;;8.20;7.30;;;;;;;18.24;100.00;97482.14;110351;1242;69082;-66
2023/07/17 00:57:31;;;;;;;8.70;7.30;;;;;;;18.22;100.00;97481.68;110128;1244;69243;-64
2023/07/17 01:00:04;;;;;;;9.30;7.30;;;;;;;18.20;100.00;97480.86;110216;1241;59686;-66
2023/07/17 01:02:40;;;;;;;8.70;7.80;;;;;;;18.17;100.00;97479.92;110154;1245;59745;-64
2023/07/17 01:05:13;;;;;;;8.30;7.40;;;;;;;18.15;100.00;97479.62;110152;1246;70421;-64
2023/07/17 01:07:46;;;;;;;9.10;6.60;;;;;;;18.13;100.00;97485.60;110269;1243;68709;-64
2023/07/17 01:10:21;;;;;;;9.70;8.50;;;;;;;18.13;100.00;97489.34;110175;1245;69094;-64
2023/07/17 01:12:54;;;;;;;7.90;7.10;;;;;;;18.12;100.00;97488.73;110123;1243;59774;-65
2023/07/17 01:15:28;;;;;;;7.90;6.70;;;;;;;18.14;100.00;97486.27;110263;1242;59637;-65
2023/07/17 01:18:01;;;;;;;9.90;7.40;;;;;;;18.14;100.00;97488.02;110269;1243;71390;-66
2023/07/17 01:20:32;;;;;;;8.00;6.90;;;;;;;18.11;100.00;97488.88;110225;1242;68480;-66
2023/07/17 01:23:04;;;;;;;9.20;7.40;;;;;;;18.06;100.00;97494.08;110234;1249;68479;-64
2023/07/17 01:25:37;;;;;;;9.20;7.50;;;;;;;18.01;100.00;97499.21;110174;1244;59776;-66
2023/07/17 01:28:14;;;;;;;8.60;7.70;;;;;;;17.97;100.00;97502.45;110208;1242;59744;-65
2023/07/17 01:30:49;;;;;;;10.50;7.70;;;;;;;17.91;100.00;97504.11;110276;1241;70662;-64
2023/07/17 01:33:24;;;;;;;8.20;7.40;;;;;;;17.83;100.00;97505.83;110148;1245;69349;-65
2023/07/17 01:36:01;;;;;;;8.80;7.70;;;;;;;17.78;100.00;97505.36;110219;1242;69289;-64
2023/07/17 01:38:34;;;;;;;7.80;6.90;;;;;;;17.77;100.00;97501.80;110212;1242;59755;-64
2023/07/17 01:41:08;;;;;;;9.70;8.40;;;;;;;17.72;100.00;97502.48;110244;1242;59622;-66
2023/07/17 01:43:41;;;;;;;9.40;8.40;;;;;;;17.63;100.00;97503.18;110267;1250;71855;-65
2023/07/17 01:46:13;;;;;;;11.10;8.00;;;;;;;17.57;100.00;97502.91;110193;1241;69236;-64
2023/07/17 01:48:47;;;;;;;10.90;7.20;;;;;;;17.54;100.00;97504.80;110241;1242;69098;-65
2023/07/17 01:51:24;;;;;;;8.80;7.80;;;;;;;17.51;100.00;97513.13;110253;1242;59683;-65
2023/07/17 01:53:58;;;;;;;8.70;7.70;;;;;;;17.49;100.00;97517.11;110285;1243;59735;-63
2023/07/17 01:56:32;;;;;;;8.30;6.30;;;;;;;17.47;100.00;97523.85;110232;1242;71294;-63
2023/07/17 01:59:04;;;;;;;8.90;7.20;;;;;;;17.45;100.00;97525.27;110204;1242;69274;-65
2023/07/17 02:01:36;;;;;;;8.20;7.10;;;;;;;17.43;100.00;97524.39;110160;1244;69277;-64
2023/07/17 02:04:06;;;;;;;;;;;;;;;17.42;100.00;97528.56;110186;1243;59786;-64
2023/07/17 02:06:40;;;;;;;9.60;7.60;;;;;;;17.38;100.00;97529.09;110311;1242;59661;-63
2023/07/17 02:09:13;;;;;;;9.00;7.60;;;;;;;17.36;100.00;97528.80;110172;1247;69678;-64
2023/07/17 02:11:45;;;;;;;10.50;8.60;;;;;;;17.33;100.00;97527.13;110234;1243;69208;-64
2023/07/17 02:14:21;;;;;;;8.30;7.40;;;;;;;17.32;100.00;97534.80;110129;1251;68874;-63
2023/07/17 02:16:55;;;;;;;8.10;7.30;;;;;;;17.31;100.00;97530.98;110180;1242;59756;-63
2023/07/17 02:19:28;;;;;;;8.10;7.20;;;;;;;17.30;100.00;97529.65;110230;1242;59673;-64
2023/07/17 02:21:59;;;;;;;9.10;7.60;;;;;;;17.29;100.00;97530.14;110227;1242;71412;-63
2023/07/17 02:24:29;;;;;;;8.90;8.00;;;;;;;17.28;100.00;97525.44;110163;1240;68455;-66
2023/07/17 02:27:02;;;;;;;9.20;7.70;;;;;;;17.28;100.00;97524.77;110242;1242;68402;-63
2023/07/17 02:29:38;;;;;;;9.70;8.00;;;;;;;17.27;100.00;97527.11;110239;1243;59647;-63
2023/07/17 02:32:09;;;;;;;8.30;7.40;;;;;;;17.26;100.00;97528.10;110263;1241;59682;-63
2023/07/17 02:34:40;;;;;;;8.10;6.80;;;;;;;17.24;100.00;97526.90;110179;1245;71413;-64
2023/07/17 02:37:13;;;;;;;9.60;8.30;;;;;;;17.22;100.00;97525.52;110284;1244;69571;-64
2023/07/17 02:39:47;;;;;;;8.90;7.80;;;;;;;17.20;100.00;97525.95;110165;1252;69190;-62
2023/07/17 02:42:20;;;;;;;10.30;8.90;;;;;;;17.17;100.00;97523.25;110316;1241;59713;-64
2023/07/17 02:44:52;;;;;;;9.80;8.90;;;;;;;17.14;100.00;97519.33;110335;1242;59744;-65
2023/07/17 02:47:28;;;;;;;10.30;8.90;;;;;;;17.10;100.00;97521.66;110218;1246;70663;-64
2023/07/17 02:50:01;;;;;;;11.20;8.80;;;;;;;17.05;100.00;97518.74;110322;1242;67340;-64
2023/07/17 02:52:34;;;;;;;9.20;8.20;;;;;;;17.03;100.00;97517.53;110179;1245;69232;-65
2023/07/17 02:55:05;;;;;;;8.40;7.50;;;;;;;17.02;100.00;97517.17;110331;1242;59691;-66
2023/07/17 02:57:35;;;;;;;10.00;8.00;;;;;;;17.01;100.00;97516.02;110268;1242;59758;-65
2023/07/17 03:00:19;;;;;;;10.30;9.20;;;;;;;17.00;100.00;97520.14;110226;1241;70201;-65
2023/07/17 03:02:51;;;;;;;9.40;8.30;;;;;;;17.00;100.00;97521.16;110245;1243;69200;-63
2023/07/17 03:05:25;;;;;;;8.80;7.90;;;;;;;17.02;100.00;97524.66;110308;1242;69312;-64
2023/07/17 03:07:58;;;;;;;8.10;7.30;;;;;;;17.05;100.00;97523.36;110279;1241;59780;-66
2023/07/17 03:10:32;;;;;;;8.40;7.50;;;;;;;17.10;100.00;97524.64;110159;1244;59626;-64
2023/07/17 03:13:05;;;;;;;10.40;7.70;;;;;;;17.14;100.00;97525.08;110270;1242;70372;-65
2023/07/17 03:15:37;;;;;;;10.40;7.80;;;;;;;17.16;100.00;97523.52;110270;1242;68501;-65
2023/07/17 03:18:12;;;;;;;9.30;7.50;;;;;;;17.18;100.00;97525.11;110186;1240;68569;-65
2023/07/17 03:20:44;;;;;;;9.10;7.90;;;;;;;17.17;100.00;97521.60;110101;1241;59716;-64
2023/07/17 03:23:15;;;;;;;10.30;8.50;;;;;;;17.19;100.00;97524.13;110193;1246;59715;-65
2023/07/17 03:25:47;;;;;;;11.40;8.80;;;;;;;17.19;100.00;97527.73;110227;1243;71420;-65
2023/07/17 03:28:20;;;;;;;9.20;7.50;;;;;;;17.22;100.00;97529.11;110205;1245;69254;-65
2023/07/17 03:30:51;;;;;;;7.70;6.90;;;;;;;17.24;100.00;97531.38;110210;1243;69304;-64
2023/07/17 03:33:23;;;;;;;7.40;6.60;;;;;;;17.26;100.00;97536.91;110243;1252;59704;-64
2023/07/17 03:35:55;;;;;;;8.00;7.20;;;;;;;17.29;100.00;97543.17;110266;1242;59731;-64
2023/07/17 03:38:31;;;;;;;7.00;6.30;;;;;;;17.33;100.00;97543.65;110223;1241;71469;-64
2023/07/17 03:41:03;;;;;;;7.80;6.50;;;;;;;17.39;100.00;97541.19;109660;1241;630397;-64
2023/07/17 03:43:35;;;;;;;8.10;7.20;;;;;;;17.44;100.00;97541.34;110205;1244;68591;-65
2023/07/17 03:46:07;;;;;;;8.60;6.80;;;;;;;17.52;100.00;97540.55;110213;1241;59703;-65
2023/07/17 03:48:38;;;;;;;9.90;7.50;;;;;;;17.61;100.00;97538.12;110186;1244;59666;-64
2023/07/17 03:51:10;;;;;;;9.50;7.70;;;;;;;17.69;100.00;97538.84;110181;1241;71471;-64
2023/07/17 03:53:42;;;;;;;8.70;7.80;;;;;;;17.77;100.00;97536.00;110143;1242;69046;-64
2023/07/17 03:56:15;;;;;;;9.70;8.20;;;;;;;17.79;100.00;97536.81;110190;1243;69110;-65
2023/07/17 03:58:47;;;;;;;8.50;7.60;;;;;;;17.81;100.00;97542.81;110245;1241;59696;-66
2023/07/17 04:01:18;;;;;;;10.20;7.40;;;;;;;17.84;100.00;97539.92;110220;1246;59631;-65
2023/07/17 04:03:49;;;;;;;7.90;7.10;;;;;;;17.90;100.00;97537.02;110140;1245;70508;-64
2023/07/17 04:06:21;;;;;;;10.70;8.10;;;;;;;17.98;100.00;97538.77;110206;1243;68526;-65
2023/07/17 04:08:52;;;;;;;9.20;8.20;;;;;;;18.06;100.00;97544.86;110284;1242;69322;-64
2023/07/17 04:11:25;;;;;;;9.20;8.40;;;;;;;18.11;100.00;97550.92;110184;1246;59747;-65
2023/07/17 04:13:56;;;;;;;10.40;8.30;;;;;;;18.18;100.00;97552.63;110155;1241;59807;-64
2023/07/17 04:16:26;;;;;;;9.60;8.30;;;;;;;18.25;100.00;97553.52;110012;1245;70953;-65
2023/07/17 04:18:57;;;;;;;8.30;6.80;;;;;;;18.36;100.00;97558.38;110182;1244;69871;-64
2023/07/17 04:21:29;;;;;;;7.90;7.10;;;;;;;18.48;100.00;97562.64;110194;1244;69153;-65
2023/07/17 04:23:59;;;;;;;8.30;7.40;;;;;;;18.59;100.00;97561.32;110241;1246;59728;-65
2023/07/17 04:26:37;;;;;;;8.60;7.70;;;;;;;18.73;100.00;97558.36;110186;1246;59673;-63
2023/07/17 04:29:10;;;;;;;8.30;7.40;;;;;;;18.87;100.00;97563.75;110183;1244;71285;-65
2023/07/17 04:31:41;;;;;;;7.20;6.50;;;;;;;19.08;100.00;97561.38;110219;1246;69259;-66
2023/07/17 04:34:12;;;;;;;7.10;6.40;;;;;;;19.25;100.00;97560.58;110298;1242;69290;-65
2023/07/17 04:36:42;;;;;;;7.50;6.70;;;;;;;19.42;100.00;97562.38;110157;1246;59764;-65
2023/07/17 04:39:12;;;;;;;8.00;7.20;;;;;;;19.55;100.00;97562.42;110144;1243;59630;-65
2023/07/17 04:41:42;;;;;;;7.90;7.10;;;;;;;19.68;100.00;97562.23;110277;1241;71201;-65
2023/07/17 04:44:15;;;;;;;8.40;7.20;;;;;;;19.74;100.00;97570.60;110188;1244;69715;-65
2023/07/17 04:46:44;;;;;;;7.90;7.10;;;;;;;19.81;100.00;97573.98;110135;1245;69176;-66
2023/07/17 04:49:14;;;;;;;7.90;7.10;;;;;;;19.95;100.00;97577.95;110153;1243;59747;-64
2023/07/17 04:51:44;;;;;;;7.80;7.00;;;;;;;20.10;100.00;97574.02;110164;1246;59770;-64
2023/07/17 04:54:14;;;;;;;6.70;6.10;;;;;;;20.25;100.00;97576.16;110236;1242;71326;-63
2023/07/17 04:56:44;;;;;;;8.20;7.00;;;;;;;20.43;100.00;97580.66;110169;1244;69269;-64
2023/07/17 04:59:17;;;;;;;7.10;6.40;;;;;;;20.63;100.00;97579.06;110252;1242;69848;-64
2023/07/17 05:01:47;;;;;;;7.30;6.50;;;;;;;20.84;100.00;97578.40;110180;1245;59743;-66
2023/07/17 05:04:17;;;;;;;7.10;6.20;;;;;;;21.06;100.00;97575.88;110238;1242;59637;-65
2023/07/17 05:06:47;;;;;;;7.00;6.20;;;;;;;21.25;100.00;97570.66;110191;1242;71181;-66
2023/07/17 05:09:16;;;;;;;8.90;7.30;;;;;;;21.47;99.87;97574.08;110271;1241;69147;-63
2023/07/17 05:11:47;;;;;;;8.10;7.30;;;;;;;21.69;100.00;97568.88;110149;1244;69359;-64
2023/07/17 05:14:17;;;;;;;8.60;6.90;;;;;;;21.95;100.00;97575.18;110139;1245;59812;-65
2023/07/17 05:16:46;;;;;;;7.30;5.90;;;;;;;22.33;99.92;97571.83;110234;1242;59687;-64
2023/07/17 05:19:18;;;;;;;7.10;6.00;;;;;;;22.77;99.57;97571.40;110188;1245;71400;-64
2023/07/17 05:21:47;;;;;;;5.80;5.30;;;;;;;23.20;95.56;97566.18;110170;1241;68355;-64
2023/07/17 05:24:17;;;;;;;8.30;6.00;;;;;;;23.67;91.30;97565.19;110152;1244;68176;-63
2023/07/17 05:26:47;;;;;;;7.50;5.70;;;;;;;24.07;87.77;97562.91;110151;1245;59663;-64
2023/07/17 05:29:19;;;;;;;6.60;6.00;;;;;;;24.41;85.17;97560.85;110243;1244;60146;-64
2023/07/17 05:31:49;;;;;;;5.70;5.10;;;;;;;24.87;86.30;97564.12;110188;1245;70438;-64
2023/07/17 05:34:19;;;;;;;5.80;5.20;;;;;;;25.27;81.86;97567.36;110291;1242;69198;-65
2023/07/17 05:36:49;;;;;;;6.70;5.20;;;;;;;25.53;76.14;97569.98;110192;1244;68912;-64
2023/07/17 05:39:19;;;;;;;6.70;6.00;;;;;;;25.56;72.43;97576.83;110152;1245;59746;-64
2023/07/17 05:41:50;;;;;;;7.10;5.50;;;;;;;25.72;72.49;97581.06;110234;1241;59727;-64
2023/07/17 05:44:19;;;;;;;8.40;6.10;;;;;;;25.80;71.54;97585.58;110150;1245;69682;-63
2023/07/17 05:46:48;;;;;;;5.90;5.40;;;;;;;25.69;70.62;97584.15;110307;1242;68533;-65
2023/07/17 05:49:17;;;;;;;6.30;5.70;;;;;;;25.77;69.90;97580.71;110108;1245;69302;-64
2023/07/17 05:51:48;;;;;;;6.40;5.70;;;;;;;25.83;71.31;97579.63;110131;1245;59705;-64
2023/07/17 05:54:18;;;;;;;6.60;5.50;;;;;;;25.77;69.72;97580.05;110224;1241;59696;-65
2023/07/17 05:56:47;;;;;;;6.30;5.70;;;;;;;25.81;71.16;97582.84;110118;1244;71115;-66
2023/07/17 05:59:16;;;;;;;;;;;;;;;25.70;70.93;97585.84;110288;1242;68882;-64
2023/07/17 06:01:45;;;;;;;6.20;5.60;;;;;;;25.34;70.66;97586.54;110322;1241;69705;-66
2023/07/17 06:04:15;;;;;;;8.10;6.20;;;;;;;25.31;72.45;97584.41;110266;1243;59664;-64
2023/07/17 06:06:44;;;;;;;;;;;;;;;25.24;72.68;97584.92;110322;1242;59743;-66
2023/07/17 06:09:13;;;;;;;6.40;5.80;;;;;;;24.97;73.52;97586.30;110208;1242;71639;-64
2023/07/17 06:11:43;;;;;;;7.10;6.30;;;;;;;24.83;75.01;97584.70;110127;1240;69776;-64
2023/07/17 06:14:12;;;;;;;;;;;;;;;24.83;74.89;97584.51;110256;1242;69868;-66
2023/07/17 06:16:41;;;;;;;6.60;5.40;;;;;;;25.13;74.60;97584.59;110247;1242;59740;-64
2023/07/17 06:19:10;;;;;;;8.00;5.70;;;;;;;25.42;72.13;97584.08;110247;1242;59700;-63
2023/07/17 06:21:39;;;;;;;;;;;;;;;25.56;70.21;97586.79;110242;1240;71744;-66
2023/07/17 06:24:08;;;;;;;8.20;5.90;;;;;;;25.89;69.47;97589.10;110281;1243;69048;-64
2023/07/17 06:26:37;;;;;;;6.90;6.20;;;;;;;26.11;69.09;97586.60;110089;1244;69230;-64
2023/07/17 06:29:07;;;;;;;;;;;;;;;26.48;69.19;97586.67;110213;1241;59700;-64
2023/07/17 06:31:38;;;;;;;7.00;6.30;;;;;;;27.05;69.39;97589.08;110242;1249;59691;-64
2023/07/17 06:34:07;;;;;;;5.80;5.30;;;;;;;27.43;64.62;97586.05;110225;1244;71382;-65
2023/07/17 06:36:36;;;;;;;;;;;;;;;27.89;62.56;97586.88;110300;1242;68825;-65
2023/07/17 06:39:05;;;;;;;6.20;5.60;;;;;;;28.30;64.72;97582.02;110227;1241;69878;-65
2023/07/17 06:41:34;;;;;;;6.20;5.60;;;;;;;28.60;61.62;97576.79;110191;1242;59754;-64
2023/07/17 06:44:03;;;;;;;6.00;5.50;;;;;;;28.59;59.80;97575.52;110279;1242;59697;-62
2023/07/17 06:46:32;;;;;;;6.10;5.40;;;;;;;28.81;59.04;97574.29;110244;1242;70607;-66
2023/07/17 06:49:01;;;;;;;;;;;;;;;29.16;56.57;97574.52;110296;1243;69220;-66
2023/07/17 06:51:31;;;;;;;5.60;5.10;;;;;;;29.59;56.74;97572.58;110278;1241;69160;-65
2023/07/17 06:54:02;;;;;;;5.70;4.80;;;;;;;30.07;55.66;97571.57;110300;1242;59692;-65
2023/07/17 06:56:31;;;;;;;5.70;5.20;;;;;;;30.43;53.80;97567.77;110249;1240;59796;-66
2023/07/17 06:59:01;;;;;;;4.90;4.40;;;;;;;30.86;55.22;97565.45;110247;1242;71379;-64
2023/07/17 07:01:30;;;;;;;5.40;4.90;;;;;;;31.10;51.32;97565.46;110305;1242;68570;-66
2023/07/17 07:03:59;;;;;;;6.40;5.80;;;;;;;31.40;50.28;97560.91;110247;1242;68536;-65
2023/07/17 07:06:30;;;;;;;6.80;6.00;;;;;;;31.17;49.49;97563.17;110281;1242;60062;-66
2023/07/17 07:08:59;;;;;;;7.40;6.50;;;;;;;30.82;49.74;97564.66;110295;1242;59635;-65
2023/07/17 07:11:27;;;;;;;;;;;;;;;31.00;50.87;97565.04;110250;1242;71887;-65
2023/07/17 07:13:58;;;;;;;6.10;5.30;;;;;;;31.21;49.84;97565.15;110232;1243;69749;-66
2023/07/17 07:16:27;;;;;;;6.80;5.10;;;;;;;31.51;49.79;97568.48;110221;1242;68432;-65
2023/07/17 07:18:56;;;;;;;6.60;5.80;;;;;;;31.14;47.56;97564.09;110239;1242;59737;-65
2023/07/17 07:21:25;;;;;;;7.50;6.70;;;;;;;30.95;50.26;97559.38;110292;1242;59678;-66
2023/07/17 07:23:54;;;;;;;6.50;5.80;;;;;;;31.03;50.80;97561.13;110220;1242;71429;-63
2023/07/17 07:26:23;;;;;;;6.20;5.60;;;;;;;30.26;51.95;97563.36;110274;1242;68334;-65
2023/07/17 07:28:52;;;;;;;7.30;6.10;;;;;;;30.14;52.50;97566.15;110229;1242;69654;-65
2023/07/17 07:31:21;;;;;;;5.80;5.30;;;;;;;29.76;53.71;97564.25;110220;1244;59989;-65
2023/07/17 07:33:51;;;;;;;7.70;5.60;;;;;;;29.72;54.66;97562.99;110249;1242;59628;-65
2023/07/17 07:36:22;;;;;;;6.50;5.90;;;;;;;29.49;55.39;97561.34;110252;1241;72394;-66
2023/07/17 07:38:51;;;;;;;6.70;6.10;;;;;;;29.07;56.75;97565.71;110216;1245;69202;-66
2023/07/17 07:41:20;;;;;;;6.40;5.70;;;;;;;28.81;57.28;97563.64;110232;1240;68078;-65
2023/07/17 07:43:49;;;;;;;9.80;7.30;;;;;;;28.75;58.04;97552.42;110216;1241;59681;-64
2023/07/17 07:46:18;;;;;;;;;;;;;;;28.53;58.38;97550.61;110276;1241;59720;-64
2023/07/17 07:48:47;;;;;;;6.20;5.60;;;;;;;28.20;58.98;97549.80;110190;1241;71771;-64
2023/07/17 07:51:16;;;;;;;7.50;6.80;;;;;;;27.90;61.19;97553.27;110230;1242;70185;-65
2023/07/17 07:53:46;;;;;;;7.00;6.30;;;;;;;27.93;60.81;97549.77;110209;1243;69283;-65
2023/07/17 07:56:16;;;;;;;9.20;7.00;;;;;;;27.88;61.99;97549.15;110205;1244;59736;-65
2023/07/17 07:58:45;;;;;;;7.10;6.40;;;;;;;27.92;63.74;97549.77;110268;1242;59719;-66
2023/07/17 08:01:14;;;;;;;6.90;6.10;;;;;;;27.97;61.98;97548.55;110216;1242;70147;-66
2023/07/17 08:03:43;;;;;;;7.80;7.00;;;;;;;28.06;61.86;97546.03;110279;1242;68927;-66
2023/07/17 08:06:13;;;;;;;8.70;7.00;;;;;;;28.00;63.00;97549.15;110184;1242;69852;-67
2023/07/17 08:08:42;;;;;;;7.80;6.80;;;;;;;28.06;63.03;97546.77;110275;1242;59786;-67
2023/07/17 08:11:11;;;;;;;;;;;;;;;28.14;62.38;97547.83;110241;1242;59664;-67
2023/07/17 08:13:40;;;;;;;7.70;6.70;;;;;;;28.33;61.49;97541.80;110265;1242;70299;-66
2023/07/17 08:16:10;;;;;;;6.10;5.50;;;;;;;28.39;61.82;97544.48;110261;1242;69841;-65
2023/07/17 08:18:39;;;;;;;6.80;6.10;;;;;;;28.66;62.38;97550.29;110204;1242;68073;-64
2023/07/17 08:21:08;;;;;;;9.40;7.50;;;;;;;28.82;61.22;97549.24;110194;1245;59676;-64
2023/07/17 08:23:37;;;;;;;8.60;7.20;;;;;;;28.77;61.02;97550.28;110264;1242;59705;-66
2023/07/17 08:26:06;;;;;;;9.60;7.50;;;;;;;28.78;60.63;97550.20;110221;1242;71957;-65
2023/07/17 08:28:35;;;;;;;7.00;6.30;;;;;;;28.92;60.49;97552.66;110271;1240;69408;-65
2023/07/17 08:31:05;;;;;;;7.70;6.10;;;;;;;29.23;60.10;97550.92;110246;1241;68814;-65
2023/07/17 08:33:34;;;;;;;6.60;6.10;;;;;;;29.54;58.90;97550.52;110199;1242;59753;-64
2023/07/17 08:36:04;;;;;;;6.60;6.00;;;;;;;29.85;57.31;97552.64;110201;1242;59754;-66
2023/07/17 08:38:33;;;;;;;7.10;6.30;;;;;;;30.30;57.35;97550.88;110248;1241;71353;-65
2023/07/17 08:41:02;;;;;;;6.40;5.10;;;;;;;30.81;56.21;97551.29;110234;1242;69905;-66
2023/07/17 08:43:33;;;;;;;6.80;6.10;;;;;;;31.47;53.68;97551.13;110194;1242;69455;-66
2023/07/17 08:46:02;;;;;;;7.50;6.80;;;;;;;31.86;51.62;97551.70;110227;1242;59738;-66
2023/07/17 08:48:31;;;;;;;8.20;6.60;;;;;;;31.78;49.78;97548.71;110188;1242;59749;-66
2023/07/17 08:51:02;;;;;;;7.10;6.40;;;;;;;31.43;50.24;97547.14;110238;1241;71958;-65
2023/07/17 08:53:33;;;;;;;7.00;6.20;;;;;;;31.31;50.91;97543.24;110309;1242;69374;-65
2023/07/17 08:56:03;;;;;;;6.40;5.80;;;;;;;31.76;50.80;97545.08;110302;1242;69266;-65
2023/07/17 08:58:32;;;;;;;6.30;5.70;;;;;;;32.20;50.15;97546.09;110279;1243;59734;-64
2023/07/17 09:01:01;;;;;;;7.10;6.40;;;;;;;32.52;48.36;97544.75;110273;1242;59734;-65
2023/07/17 09:03:32;;;;;;;6.70;6.00;;;;;;;32.53;47.92;97542.23;110269;1242;71218;-65
2023/07/17 09:06:03;;;;;;;7.30;6.50;;;;;;;32.85;46.36;97536.61;110251;1241;68391;-65
2023/07/17 09:08:32;;;;;;;7.30;5.90;;;;;;;32.91;45.88;97538.26;110349;1241;69247;-66
2023/07/17 09:11:09;;;;;;;6.30;5.70;;;;;;;33.10;45.48;97538.83;110228;1241;59661;-65
2023/07/17 09:13:41;;;;;;;6.80;6.20;;;;;;;33.20;44.70;97538.72;110314;1242;59709;-66
2023/07/17 09:16:18;;;;;;;7.40;6.70;;;;;;;33.47;44.97;97535.34;110302;1240;71165;-65
2023/07/17 09:18:48;;;;;;;7.20;6.60;;;;;;;33.25;44.25;97535.70;110265;1242;70278;-65
2023/07/17 09:21:20;;;;;;;7.30;6.60;;;;;;;33.39;45.48;97534.83;110301;1243;69294;-66
2023/07/17 09:23:54;;;;;;;6.50;5.90;;;;;;;33.53;45.14;97532.42;110266;1242;59691;-66
2023/07/17 09:26:25;;;;;;;8.00;6.90;;;;;;;33.80;44.60;97530.80;110327;1242;59932;-66
2023/07/17 09:28:56;;;;;;;6.50;6.00;;;;;;;34.23;43.88;97530.89;110290;1240;71404;-67
2023/07/17 09:31:28;;;;;;;6.50;5.90;;;;;;;34.56;43.53;97528.14;110261;1242;69197;-66
2023/07/17 09:34:04;;;;;;;7.20;6.50;;;;;;;34.98;42.78;97531.85;110315;1241;69633;-66
2023/07/17 09:36:32;;;;;;;6.40;5.80;;;;;;;35.22;42.05;97531.51;110278;1245;59725;-66
2023/07/17 09:39:04;;;;;;;6.90;6.30;;;;;;;35.57;42.08;97531.13;110296;1242;59738;-66
2023/07/17 09:41:34;;;;;;;6.80;6.20;;;;;;;35.84;40.46;97530.67;110298;1242;71952;-66
2023/07/17 09:44:08;;;;;;;6.90;6.10;;;;;;;35.61;39.54;97529.30;110430;1240;69627;-67
2023/07/17 09:46:39;;;;;;;6.10;5.50;;;;;;;35.82;39.27;97527.83;110306;1240;69593;-66
2023/07/17 09:49:08;;;;;;;6.20;5.60;;;;;;;36.07;38.28;97522.85;110329;1243;59695;-67
2023/07/17 09:51:37;;;;;;;7.10;6.50;;;;;;;36.38;37.72;97518.80;110393;1242;59678;-67
2023/07/17 09:54:06;;;;;;;6.60;6.00;;;;;;;36.46;37.78;97521.20;110369;1242;71181;-66
2023/07/17 09:56:37;;;;;;;8.60;6.30;;;;;;;36.38;37.23;97518.91;110461;1240;69408;-66
2023/07/17 09:59:24;;;;;;;7.00;6.30;;;;;;;36.37;37.91;97519.56;110194;1241;69330;-66
2023/07/17 10:01:56;;;;;;;7.40;6.60;;;;;;;36.10;38.24;97519.27;110255;1242;60132;-66
2023/07/17 10:04:33;;;;;;;6.90;6.20;;;;;;;35.75;38.14;97515.77;110289;1242;59687;-67
2023/07/17 10:07:03;;;;;;;6.60;6.00;;;;;;;35.86;38.24;97519.23;110273;1242;71930;-67
2023/07/17 10:09:36;;;;;;;6.80;6.30;;;;;;;35.70;38.63;97519.88;110300;1240;69169;-67
2023/07/17 10:12:10;;;;;;;7.10;6.50;;;;;;;35.33;38.37;97515.27;110182;1241;69742;-67
2023/07/17 10:14:40;;;;;;;7.30;6.60;;;;;;;35.08;39.05;97518.05;110299;1241;59673;-67
2023/07/17 10:17:30;;;;;;;6.70;6.00;;;;;;;35.30;38.42;97516.74;110362;1241;59747;-68
2023/07/17 10:20:06;;;;;;;6.90;6.30;;;;;;;34.97;39.52;97509.63;110300;1242;72005;-66
2023/07/17 10:22:45;;;;;;;6.80;6.20;;;;;;;35.04;39.04;97513.48;110173;1246;69035;-68
2023/07/17 10:25:17;;;;;;;7.00;6.40;;;;;;;35.14;38.78;97510.19;110241;1241;69841;-66
2023/07/17 10:27:50;;;;;;;6.80;6.00;;;;;;;35.32;38.01;97506.91;110268;1242;59787;-66
2023/07/17 10:30:25;;;;;;;6.10;5.50;;;;;;;35.52;38.48;97504.42;110306;1242;60098;-66
2023/07/17 10:33:15;;;;;;;7.10;6.50;;;;;;;35.55;37.26;97509.98;110227;1240;72183;-67
2023/07/17 10:35:46;;;;;;;7.50;6.70;;;;;;;35.28;37.58;97505.17;110275;1242;69872;-66
2023/07/17 10:38:18;;;;;;;6.60;6.00;;;;;;;35.00;38.78;97503.39;110157;1246;70327;-67
2023/07/17 10:40:48;;;;;;;6.80;5.60;;;;;;;34.74;39.04;97498.22;110192;1242;59724;-63
2023/07/17 10:43:20;;;;;;;7.00;6.30;;;;;;;34.57;38.67;97499.06;110169;1241;59751;-65
2023/07/17 10:45:49;;;;;;;7.80;6.90;;;;;;;34.55;39.26;97497.02;110199;1241;71947;-65
2023/07/17 10:48:18;;;;;;;7.30;6.10;;;;;;;34.62;40.59;97493.17;110210;1243;68834;-65
2023/07/17 10:50:50;;;;;;;6.80;6.20;;;;;;;34.65;40.01;97494.42;110160;1241;68528;-66
2023/07/17 10:53:20;;;;;;;6.30;5.60;;;;;;;34.75;38.09;97491.17;110204;1245;59694;-66
2023/07/17 10:55:50;;;;;;;6.40;5.80;;;;;;;34.76;37.05;97492.69;110189;1241;59718;-66
2023/07/17 10:58:20;;;;;;;6.00;5.50;;;;;;;34.66;37.06;97492.42;110166;1241;71692;-65
2023/07/17 11:00:49;;;;;;;6.40;5.80;;;;;;;34.64;37.49;97489.23;110354;1242;69439;-65
2023/07/17 11:03:28;;;;;;;5.80;5.20;;;;;;;34.77;37.44;97488.25;110302;1242;69248;-65
2023/07/17 11:05:57;;;;;;;6.70;6.00;;;;;;;34.92;36.02;97487.82;110226;1242;59744;-67
2023/07/17 11:08:29;;;;;;;6.70;5.70;;;;;;;34.99;36.34;97488.02;110249;1245;59689;-66
2023/07/17 11:10:58;;;;;;;5.20;4.70;;;;;;;34.97;35.78;97485.09;110178;1241;71897;-66
2023/07/17 11:13:33;;;;;;;5.80;5.30;;;;;;;35.16;36.75;97484.54;110206;1242;68720;-67
2023/07/17 11:16:07;;;;;;;6.20;5.60;;;;;;;35.44;37.27;97477.29;110273;1242;69543;-65
2023/07/17 11:18:50;;;;;;;7.30;5.40;;;;;;;35.42;36.55;97475.58;110216;1242;59691;-64
2023/07/17 11:21:24;;;;;;;6.20;5.60;;;;;;;35.52;36.45;97468.88;110262;1242;59681;-66
2023/07/17 11:23:58;;;;;;;6.00;5.40;;;;;;;35.72;36.51;97469.00;110247;1241;71663;-66
2023/07/17 11:26:34;;;;;;;6.00;5.40;;;;;;;35.76;36.86;97470.58;110287;1242;69727;-65
2023/07/17 11:29:03;;;;;;;6.40;5.70;;;;;;;35.70;35.99;97464.48;110257;1242;68314;-66
2023/07/17 11:31:34;;;;;;;6.20;5.60;;;;;;;35.75;35.53;97467.19;110212;1241;59709;-66
2023/07/17 11:34:09;;;;;;;5.50;5.00;;;;;;;35.72;35.03;97464.09;110276;1240;60062;-65
2023/07/17 11:36:47;;;;;;;5.60;5.00;;;;;;;35.46;35.68;97463.91;110137;1243;71285;-66
2023/07/17 11:39:21;;;;;;;5.90;5.40;;;;;;;35.43;35.14;97460.38;110229;1242;69808;-66
2023/07/17 11:41:56;;;;;;;6.10;5.40;;;;;;;35.37;34.76;97459.27;110165;1244;69101;-66
2023/07/17 11:44:26;;;;;;;5.80;4.90;;;;;;;35.45;35.95;97460.55;110098;1244;59760;-67